sensor_id;sensor_type;location;lat;lon;timestamp;pressure;altitude;pressure_sealevel;temperature
11321;BMP180;5715;48.234;14.320;2023-02-07T00:01:28;100696.00;;;4.40
11321;BMP180;5715;48.234;14.320;2023-02-07T00:04:16;100696.00;;;4.30
11321;BMP180;5715;48.234;14.320;2023-02-07T00:07:04;100695.00;;;4.50
11321;BMP180;5715;48.234;14.320;2023-02-07T00:09:52;100696.00;;;4.20
11321;BMP180;5715;48.234;14.320;2023-02-07T00:12:40;100706.00;;;4.30
11321;BMP180;5715;48.234;14.320;2023-02-07T00:15:28;100703.00;;;4.40
11321;BMP180;5715;48.234;14.320;2023-02-07T00:18:16;100698.00;;;4.40
11321;BMP180;5715;48.234;14.320;2023-02-07T00:21:17;100700.00;;;4.40
11321;BMP180;5715;48.234;14.320;2023-02-07T00:24:06;100698.00;;;4.50
11321;BMP180;5715;48.234;14.320;2023-02-07T00:26:54;100700.00;;;4.40
11321;BMP180;5715;48.234;14.320;2023-02-07T00:29:42;100703.00;;;4.50
11321;BMP180;5715;48.234;14.320;2023-02-07T00:32:33;100716.00;;;4.40
11321;BMP180;5715;48.234;14.320;2023-02-07T00:35:21;100718.00;;;4.20
11321;BMP180;5715;48.234;14.320;2023-02-07T00:38:09;100722.00;;;4.20
11321;BMP180;5715;48.234;14.320;2023-02-07T00:40:57;100729.00;;;4.00
11321;BMP180;5715;48.234;14.320;2023-02-07T00:43:46;100725.00;;;4.20
11321;BMP180;5715;48.234;14.320;2023-02-07T00:46:36;100724.00;;;4.20
11321;BMP180;5715;48.234;14.320;2023-02-07T00:49:24;100737.00;;;4.30
11321;BMP180;5715;48.234;14.320;2023-02-07T00:52:12;100737.00;;;4.20
11321;BMP180;5715;48.234;14.320;2023-02-07T00:55:00;100745.00;;;4.10
11321;BMP180;5715;48.234;14.320;2023-02-07T00:57:48;100764.00;;;4.00
11321;BMP180;5715;48.234;14.320;2023-02-07T01:00:35;100767.00;;;4.10
11321;BMP180;5715;48.234;14.320;2023-02-07T01:03:23;100773.00;;;4.10
11321;BMP180;5715;48.234;14.320;2023-02-07T01:06:12;100767.00;;;4.20
11321;BMP180;5715;48.234;14.320;2023-02-07T01:09:02;100773.00;;;4.20
11321;BMP180;5715;48.234;14.320;2023-02-07T01:11:50;100767.00;;;4.00
11321;BMP180;5715;48.234;14.320;2023-02-07T01:14:38;100761.00;;;4.10
11321;BMP180;5715;48.234;14.320;2023-02-07T01:17:26;100767.00;;;3.80
11321;BMP180;5715;48.234;14.320;2023-02-07T01:20:14;100767.00;;;3.80
11321;BMP180;5715;48.234;14.320;2023-02-07T01:23:03;100757.00;;;3.80
11321;BMP180;5715;48.234;14.320;2023-02-07T01:25:52;100766.00;;;3.80
11321;BMP180;5715;48.234;14.320;2023-02-07T01:28:40;100753.00;;;3.90
11321;BMP180;5715;48.234;14.320;2023-02-07T01:31:29;100750.00;;;3.90
11321;BMP180;5715;48.234;14.320;2023-02-07T01:34:17;100747.00;;;3.80
11321;BMP180;5715;48.234;14.320;2023-02-07T01:37:05;100754.00;;;3.70
11321;BMP180;5715;48.234;14.320;2023-02-07T01:39:52;100749.00;;;3.70
11321;BMP180;5715;48.234;14.320;2023-02-07T01:42:41;100739.00;;;3.40
11321;BMP180;5715;48.234;14.320;2023-02-07T01:45:38;100731.00;;;3.70
11321;BMP180;5715;48.234;14.320;2023-02-07T01:48:35;100735.00;;;4.00
11321;BMP180;5715;48.234;14.320;2023-02-07T01:51:25;100727.00;;;4.00
11321;BMP180;5715;48.234;14.320;2023-02-07T01:54:16;100729.00;;;3.80
11321;BMP180;5715;48.234;14.320;2023-02-07T01:57:11;100724.00;;;3.90
11321;BMP180;5715;48.234;14.320;2023-02-07T02:00:02;100726.00;;;3.80
11321;BMP180;5715;48.234;14.320;2023-02-07T02:02:50;100737.00;;;3.60
11321;BMP180;5715;48.234;14.320;2023-02-07T02:05:40;100740.00;;;3.70
11321;BMP180;5715;48.234;14.320;2023-02-07T02:08:29;100735.00;;;3.70
11321;BMP180;5715;48.234;14.320;2023-02-07T02:22:27;100727.00;;;3.00
11321;BMP180;5715;48.234;14.320;2023-02-07T02:45:37;100725.00;;;3.00
11321;BMP180;5715;48.234;14.320;2023-02-07T02:48:28;100726.00;;;2.70
11321;BMP180;5715;48.234;14.320;2023-02-07T02:51:16;100734.00;;;2.40
11321;BMP180;5715;48.234;14.320;2023-02-07T02:54:32;100735.00;;;2.50
11321;BMP180;5715;48.234;14.320;2023-02-07T03:07:04;100713.00;;;2.70
11321;BMP180;5715;48.234;14.320;2023-02-07T03:19:57;100729.00;;;2.80
11321;BMP180;5715;48.234;14.320;2023-02-07T03:22:50;100718.00;;;2.60
11321;BMP180;5715;48.234;14.320;2023-02-07T03:25:40;100713.00;;;2.90
11321;BMP180;5715;48.234;14.320;2023-02-07T03:28:31;100710.00;;;2.50
11321;BMP180;5715;48.234;14.320;2023-02-07T03:31:23;100698.00;;;2.80
11321;BMP180;5715;48.234;14.320;2023-02-07T03:34:17;100681.00;;;2.90
11321;BMP180;5715;48.234;14.320;2023-02-07T03:37:49;100686.00;;;3.10
11321;BMP180;5715;48.234;14.320;2023-02-07T03:40:47;100699.00;;;3.10
11321;BMP180;5715;48.234;14.320;2023-02-07T03:43:38;100686.00;;;3.10
11321;BMP180;5715;48.234;14.320;2023-02-07T03:46:34;100682.00;;;3.00
11321;BMP180;5715;48.234;14.320;2023-02-07T03:49:23;100688.00;;;2.80
11321;BMP180;5715;48.234;14.320;2023-02-07T03:52:10;100694.00;;;2.80
11321;BMP180;5715;48.234;14.320;2023-02-07T03:54:58;100679.00;;;2.80
11321;BMP180;5715;48.234;14.320;2023-02-07T03:57:45;100682.00;;;2.70
11321;BMP180;5715;48.234;14.320;2023-02-07T04:00:34;100679.00;;;2.70
11321;BMP180;5715;48.234;14.320;2023-02-07T04:03:22;100683.00;;;2.70
11321;BMP180;5715;48.234;14.320;2023-02-07T04:06:09;100681.00;;;2.70
11321;BMP180;5715;48.234;14.320;2023-02-07T04:08:57;100691.00;;;2.70
11321;BMP180;5715;48.234;14.320;2023-02-07T04:11:49;100698.00;;;2.10
11321;BMP180;5715;48.234;14.320;2023-02-07T04:14:37;100698.00;;;2.50
11321;BMP180;5715;48.234;14.320;2023-02-07T04:17:24;100706.00;;;2.60
11321;BMP180;5715;48.234;14.320;2023-02-07T04:20:12;100708.00;;;2.80
11321;BMP180;5715;48.234;14.320;2023-02-07T04:23:00;100687.00;;;2.70
11321;BMP180;5715;48.234;14.320;2023-02-07T04:25:47;100687.00;;;2.90
11321;BMP180;5715;48.234;14.320;2023-02-07T04:28:35;100683.00;;;2.90
11321;BMP180;5715;48.234;14.320;2023-02-07T04:31:23;100685.00;;;2.90
11321;BMP180;5715;48.234;14.320;2023-02-07T04:34:10;100680.00;;;2.90
11321;BMP180;5715;48.234;14.320;2023-02-07T04:36:59;100683.00;;;2.70
11321;BMP180;5715;48.234;14.320;2023-02-07T04:39:46;100698.00;;;2.10
11321;BMP180;5715;48.234;14.320;2023-02-07T04:42:34;100698.00;;;2.10
11321;BMP180;5715;48.234;14.320;2023-02-07T04:45:22;100704.00;;;2.50
11321;BMP180;5715;48.234;14.320;2023-02-07T04:48:09;100692.00;;;2.70
11321;BMP180;5715;48.234;14.320;2023-02-07T04:50:57;100685.00;;;2.70
11321;BMP180;5715;48.234;14.320;2023-02-07T04:53:45;100694.00;;;2.80
11321;BMP180;5715;48.234;14.320;2023-02-07T04:56:32;100708.00;;;2.70
11321;BMP180;5715;48.234;14.320;2023-02-07T04:59:22;100713.00;;;2.50
11321;BMP180;5715;48.234;14.320;2023-02-07T05:02:10;100707.00;;;2.50
11321;BMP180;5715;48.234;14.320;2023-02-07T05:04:57;100698.00;;;2.60
11321;BMP180;5715;48.234;14.320;2023-02-07T05:07:45;100720.00;;;2.50
11321;BMP180;5715;48.234;14.320;2023-02-07T05:10:33;100707.00;;;2.70
11321;BMP180;5715;48.234;14.320;2023-02-07T05:13:22;100704.00;;;2.40
11321;BMP180;5715;48.234;14.320;2023-02-07T05:16:10;100693.00;;;2.70
11321;BMP180;5715;48.234;14.320;2023-02-07T05:18:57;100701.00;;;2.60
11321;BMP180;5715;48.234;14.320;2023-02-07T05:21:45;100699.00;;;2.60
11321;BMP180;5715;48.234;14.320;2023-02-07T05:24:33;100713.00;;;2.70
11321;BMP180;5715;48.234;14.320;2023-02-07T05:27:20;100711.00;;;2.60
11321;BMP180;5715;48.234;14.320;2023-02-07T05:30:09;100712.00;;;2.10
11321;BMP180;5715;48.234;14.320;2023-02-07T05:32:57;100701.00;;;2.30
11321;BMP180;5715;48.234;14.320;2023-02-07T05:35:55;100711.00;;;2.20
11321;BMP180;5715;48.234;14.320;2023-02-07T05:38:42;100715.00;;;1.90
11321;BMP180;5715;48.234;14.320;2023-02-07T05:41:30;100718.00;;;2.10
11321;BMP180;5715;48.234;14.320;2023-02-07T05:44:18;100722.00;;;1.80
11321;BMP180;5715;48.234;14.320;2023-02-07T05:47:05;100730.00;;;2.20
11321;BMP180;5715;48.234;14.320;2023-02-07T05:49:53;100730.00;;;2.00
11321;BMP180;5715;48.234;14.320;2023-02-07T05:52:41;100735.00;;;2.10
11321;BMP180;5715;48.234;14.320;2023-02-07T05:55:28;100738.00;;;2.00
11321;BMP180;5715;48.234;14.320;2023-02-07T05:58:16;100725.00;;;2.20
11321;BMP180;5715;48.234;14.320;2023-02-07T06:01:04;100739.00;;;2.30
11321;BMP180;5715;48.234;14.320;2023-02-07T06:03:51;100749.00;;;2.30
11321;BMP180;5715;48.234;14.320;2023-02-07T06:06:39;100754.00;;;2.30
11321;BMP180;5715;48.234;14.320;2023-02-07T06:09:29;100761.00;;;2.00
11321;BMP180;5715;48.234;14.320;2023-02-07T06:12:17;100755.00;;;2.30
11321;BMP180;5715;48.234;14.320;2023-02-07T06:15:05;100756.00;;;2.50
11321;BMP180;5715;48.234;14.320;2023-02-07T06:17:53;100758.00;;;2.60
11321;BMP180;5715;48.234;14.320;2023-02-07T06:20:40;100747.00;;;2.60
11321;BMP180;5715;48.234;14.320;2023-02-07T06:23:28;100759.00;;;2.60
11321;BMP180;5715;48.234;14.320;2023-02-07T06:26:16;100767.00;;;2.70
11321;BMP180;5715;48.234;14.320;2023-02-07T06:29:04;100764.00;;;2.60
11321;BMP180;5715;48.234;14.320;2023-02-07T06:31:52;100762.00;;;2.30
11321;BMP180;5715;48.234;14.320;2023-02-07T06:34:40;100769.00;;;2.50
11321;BMP180;5715;48.234;14.320;2023-02-07T06:37:28;100766.00;;;2.30
11321;BMP180;5715;48.234;14.320;2023-02-07T06:40:16;100755.00;;;2.40
11321;BMP180;5715;48.234;14.320;2023-02-07T06:43:03;100757.00;;;2.50
11321;BMP180;5715;48.234;14.320;2023-02-07T06:45:51;100748.00;;;2.70
11321;BMP180;5715;48.234;14.320;2023-02-07T06:48:38;100758.00;;;2.20
11321;BMP180;5715;48.234;14.320;2023-02-07T06:51:27;100762.00;;;2.30
11321;BMP180;5715;48.234;14.320;2023-02-07T06:54:14;100760.00;;;2.40
11321;BMP180;5715;48.234;14.320;2023-02-07T06:57:02;100752.00;;;2.60
11321;BMP180;5715;48.234;14.320;2023-02-07T06:59:50;100751.00;;;2.80
11321;BMP180;5715;48.234;14.320;2023-02-07T07:02:37;100761.00;;;2.80
11321;BMP180;5715;48.234;14.320;2023-02-07T07:05:29;100753.00;;;2.90
11321;BMP180;5715;48.234;14.320;2023-02-07T07:08:16;100770.00;;;3.00
11321;BMP180;5715;48.234;14.320;2023-02-07T07:11:05;100764.00;;;3.00
11321;BMP180;5715;48.234;14.320;2023-02-07T07:13:53;100776.00;;;3.20
11321;BMP180;5715;48.234;14.320;2023-02-07T07:16:40;100768.00;;;3.30
11321;BMP180;5715;48.234;14.320;2023-02-07T07:19:28;100765.00;;;3.30
11321;BMP180;5715;48.234;14.320;2023-02-07T07:22:17;100764.00;;;3.60
11321;BMP180;5715;48.234;14.320;2023-02-07T07:25:07;100758.00;;;3.70
11321;BMP180;5715;48.234;14.320;2023-02-07T07:27:55;100753.00;;;4.00
11321;BMP180;5715;48.234;14.320;2023-02-07T07:30:44;100761.00;;;4.10
11321;BMP180;5715;48.234;14.320;2023-02-07T07:33:33;100776.00;;;4.30
11321;BMP180;5715;48.234;14.320;2023-02-07T07:36:21;100764.00;;;4.20
11321;BMP180;5715;48.234;14.320;2023-02-07T07:39:08;100767.00;;;4.20
11321;BMP180;5715;48.234;14.320;2023-02-07T07:41:56;100765.00;;;3.90
11321;BMP180;5715;48.234;14.320;2023-02-07T07:44:44;100779.00;;;3.50
11321;BMP180;5715;48.234;14.320;2023-02-07T07:47:32;100780.00;;;3.50
11321;BMP180;5715;48.234;14.320;2023-02-07T07:50:20;100780.00;;;3.40
11321;BMP180;5715;48.234;14.320;2023-02-07T07:53:07;100777.00;;;3.70
11321;BMP180;5715;48.234;14.320;2023-02-07T07:55:56;100788.00;;;3.70
11321;BMP180;5715;48.234;14.320;2023-02-07T07:58:43;100770.00;;;4.10
11321;BMP180;5715;48.234;14.320;2023-02-07T08:01:31;100762.00;;;4.70
11321;BMP180;5715;48.234;14.320;2023-02-07T08:04:19;100774.00;;;5.00
11321;BMP180;5715;48.234;14.320;2023-02-07T08:07:07;100770.00;;;4.80
11321;BMP180;5715;48.234;14.320;2023-02-07T08:09:54;100766.00;;;4.90
11321;BMP180;5715;48.234;14.320;2023-02-07T08:12:42;100763.00;;;5.60
11321;BMP180;5715;48.234;14.320;2023-02-07T08:15:30;100756.00;;;5.50
11321;BMP180;5715;48.234;14.320;2023-02-07T08:18:18;100741.00;;;5.20
11321;BMP180;5715;48.234;14.320;2023-02-07T08:21:06;100750.00;;;5.50
11321;BMP180;5715;48.234;14.320;2023-02-07T08:23:54;100750.00;;;5.50
11321;BMP180;5715;48.234;14.320;2023-02-07T08:26:41;100749.00;;;5.70
11321;BMP180;5715;48.234;14.320;2023-02-07T08:29:29;100758.00;;;5.60
11321;BMP180;5715;48.234;14.320;2023-02-07T08:32:17;100751.00;;;5.70
11321;BMP180;5715;48.234;14.320;2023-02-07T08:35:05;100747.00;;;5.80
11321;BMP180;5715;48.234;14.320;2023-02-07T08:37:53;100733.00;;;6.10
11321;BMP180;5715;48.234;14.320;2023-02-07T08:40:42;100745.00;;;6.00
11321;BMP180;5715;48.234;14.320;2023-02-07T08:43:29;100745.00;;;5.70
11321;BMP180;5715;48.234;14.320;2023-02-07T08:46:17;100753.00;;;6.00
11321;BMP180;5715;48.234;14.320;2023-02-07T08:49:05;100749.00;;;5.90
11321;BMP180;5715;48.234;14.320;2023-02-07T08:51:52;100756.00;;;5.60
11321;BMP180;5715;48.234;14.320;2023-02-07T08:54:40;100758.00;;;5.50
11321;BMP180;5715;48.234;14.320;2023-02-07T08:57:28;100753.00;;;5.90
11321;BMP180;5715;48.234;14.320;2023-02-07T09:00:16;100758.00;;;6.10
11321;BMP180;5715;48.234;14.320;2023-02-07T09:03:04;100759.00;;;6.40
11321;BMP180;5715;48.234;14.320;2023-02-07T09:05:57;100754.00;;;6.70
11321;BMP180;5715;48.234;14.320;2023-02-07T09:08:45;100752.00;;;6.60
11321;BMP180;5715;48.234;14.320;2023-02-07T09:11:33;100758.00;;;6.80
11321;BMP180;5715;48.234;14.320;2023-02-07T09:14:20;100752.00;;;7.00
11321;BMP180;5715;48.234;14.320;2023-02-07T09:17:08;100757.00;;;6.70
11321;BMP180;5715;48.234;14.320;2023-02-07T09:19:56;100749.00;;;6.60
11321;BMP180;5715;48.234;14.320;2023-02-07T09:22:44;100749.00;;;6.60
11321;BMP180;5715;48.234;14.320;2023-02-07T09:25:51;100756.00;;;7.00
11321;BMP180;5715;48.234;14.320;2023-02-07T09:28:39;100748.00;;;7.00
11321;BMP180;5715;48.234;14.320;2023-02-07T09:31:27;100747.00;;;7.00
11321;BMP180;5715;48.234;14.320;2023-02-07T09:34:15;100745.00;;;6.80
11321;BMP180;5715;48.234;14.320;2023-02-07T09:37:03;100740.00;;;6.80
11321;BMP180;5715;48.234;14.320;2023-02-07T09:39:50;100746.00;;;6.70
11321;BMP180;5715;48.234;14.320;2023-02-07T09:42:44;100742.00;;;6.70
11321;BMP180;5715;48.234;14.320;2023-02-07T09:45:38;100741.00;;;7.30
11321;BMP180;5715;48.234;14.320;2023-02-07T09:49:05;100735.00;;;6.90
11321;BMP180;5715;48.234;14.320;2023-02-07T09:51:56;100734.00;;;6.80
11321;BMP180;5715;48.234;14.320;2023-02-07T09:54:51;100731.00;;;6.40
11321;BMP180;5715;48.234;14.320;2023-02-07T09:57:54;100735.00;;;7.00
11321;BMP180;5715;48.234;14.320;2023-02-07T10:00:51;100731.00;;;7.20
11321;BMP180;5715;48.234;14.320;2023-02-07T10:06:51;100733.00;;;7.90
11321;BMP180;5715;48.234;14.320;2023-02-07T10:09:43;100735.00;;;8.00
11321;BMP180;5715;48.234;14.320;2023-02-07T10:16:34;100727.00;;;7.50
11321;BMP180;5715;48.234;14.320;2023-02-07T10:32:47;100744.00;;;7.00
11321;BMP180;5715;48.234;14.320;2023-02-07T10:35:36;100740.00;;;7.70
11321;BMP180;5715;48.234;14.320;2023-02-07T10:38:43;100745.00;;;7.80
11321;BMP180;5715;48.234;14.320;2023-02-07T10:41:41;100751.00;;;7.80
11321;BMP180;5715;48.234;14.320;2023-02-07T10:44:31;100751.00;;;7.90
11321;BMP180;5715;48.234;14.320;2023-02-07T10:47:19;100738.00;;;8.10
11321;BMP180;5715;48.234;14.320;2023-02-07T10:50:18;100720.00;;;8.30
11321;BMP180;5715;48.234;14.320;2023-02-07T10:53:46;100728.00;;;8.00
11321;BMP180;5715;48.234;14.320;2023-02-07T10:56:46;100724.00;;;7.90
11321;BMP180;5715;48.234;14.320;2023-02-07T10:59:41;100707.00;;;8.30
11321;BMP180;5715;48.234;14.320;2023-02-07T11:02:41;100706.00;;;7.80
11321;BMP180;5715;48.234;14.320;2023-02-07T11:05:38;100700.00;;;7.80
11321;BMP180;5715;48.234;14.320;2023-02-07T11:08:32;100701.00;;;8.50
11321;BMP180;5715;48.234;14.320;2023-02-07T11:11:27;100691.00;;;8.20
11321;BMP180;5715;48.234;14.320;2023-02-07T11:14:23;100684.00;;;8.50
11321;BMP180;5715;48.234;14.320;2023-02-07T11:17:20;100676.00;;;8.40
11321;BMP180;5715;48.234;14.320;2023-02-07T11:20:28;100679.00;;;8.70
11321;BMP180;5715;48.234;14.320;2023-02-07T11:23:17;100668.00;;;8.30
11321;BMP180;5715;48.234;14.320;2023-02-07T11:26:05;100663.00;;;8.50
11321;BMP180;5715;48.234;14.320;2023-02-07T11:29:02;100666.00;;;8.50
11321;BMP180;5715;48.234;14.320;2023-02-07T11:31:56;100655.00;;;8.10
11321;BMP180;5715;48.234;14.320;2023-02-07T11:34:51;100651.00;;;8.70
11321;BMP180;5715;48.234;14.320;2023-02-07T11:38:13;100652.00;;;8.90
11321;BMP180;5715;48.234;14.320;2023-02-07T11:41:01;100650.00;;;8.50
11321;BMP180;5715;48.234;14.320;2023-02-07T11:44:02;100649.00;;;8.40
11321;BMP180;5715;48.234;14.320;2023-02-07T11:47:03;100651.00;;;8.80
11321;BMP180;5715;48.234;14.320;2023-02-07T11:49:59;100647.00;;;8.60
11321;BMP180;5715;48.234;14.320;2023-02-07T11:52:54;100645.00;;;8.90
11321;BMP180;5715;48.234;14.320;2023-02-07T11:55:42;100645.00;;;8.70
11321;BMP180;5715;48.234;14.320;2023-02-07T11:58:39;100641.00;;;9.30
11321;BMP180;5715;48.234;14.320;2023-02-07T12:01:34;100646.00;;;9.10
11321;BMP180;5715;48.234;14.320;2023-02-07T12:04:32;100643.00;;;9.20
11321;BMP180;5715;48.234;14.320;2023-02-07T12:07:35;100639.00;;;9.30
11321;BMP180;5715;48.234;14.320;2023-02-07T12:10:33;100641.00;;;9.50
11321;BMP180;5715;48.234;14.320;2023-02-07T12:13:45;100638.00;;;9.70
11321;BMP180;5715;48.234;14.320;2023-02-07T12:16:50;100628.00;;;9.30
11321;BMP180;5715;48.234;14.320;2023-02-07T12:19:57;100629.00;;;9.20
11321;BMP180;5715;48.234;14.320;2023-02-07T12:26:32;100612.00;;;9.00
11321;BMP180;5715;48.234;14.320;2023-02-07T12:39:02;100611.00;;;9.60
11321;BMP180;5715;48.234;14.320;2023-02-07T12:44:58;100598.00;;;9.40
11321;BMP180;5715;48.234;14.320;2023-02-07T12:48:05;100591.00;;;9.10
11321;BMP180;5715;48.234;14.320;2023-02-07T12:54:34;100595.00;;;9.70
11321;BMP180;5715;48.234;14.320;2023-02-07T12:57:36;100587.00;;;10.00
11321;BMP180;5715;48.234;14.320;2023-02-07T13:04:10;100582.00;;;9.30
11321;BMP180;5715;48.234;14.320;2023-02-07T13:07:37;100581.00;;;9.50
11321;BMP180;5715;48.234;14.320;2023-02-07T13:10:34;100577.00;;;9.70
11321;BMP180;5715;48.234;14.320;2023-02-07T13:23:33;100594.00;;;9.50
11321;BMP180;5715;48.234;14.320;2023-02-07T13:26:23;100591.00;;;9.50
11321;BMP180;5715;48.234;14.320;2023-02-07T13:29:14;100596.00;;;9.80
11321;BMP180;5715;48.234;14.320;2023-02-07T13:32:09;100579.00;;;9.50
11321;BMP180;5715;48.234;14.320;2023-02-07T13:35:25;100586.00;;;9.70
11321;BMP180;5715;48.234;14.320;2023-02-07T13:44:53;100596.00;;;9.90
11321;BMP180;5715;48.234;14.320;2023-02-07T13:48:12;100590.00;;;10.20
11321;BMP180;5715;48.234;14.320;2023-02-07T13:54:39;100583.00;;;10.20
11321;BMP180;5715;48.234;14.320;2023-02-07T14:03:35;100571.00;;;10.30
11321;BMP180;5715;48.234;14.320;2023-02-07T14:06:29;100573.00;;;10.40
11321;BMP180;5715;48.234;14.320;2023-02-07T14:09:34;100578.00;;;10.50
11321;BMP180;5715;48.234;14.320;2023-02-07T14:12:32;100575.00;;;10.10
11321;BMP180;5715;48.234;14.320;2023-02-07T14:21:30;100577.00;;;10.00
11321;BMP180;5715;48.234;14.320;2023-02-07T14:24:29;100577.00;;;10.20
11321;BMP180;5715;48.234;14.320;2023-02-07T14:27:32;100582.00;;;9.80
11321;BMP180;5715;48.234;14.320;2023-02-07T14:30:35;100580.00;;;10.00
11321;BMP180;5715;48.234;14.320;2023-02-07T14:33:35;100586.00;;;10.20
11321;BMP180;5715;48.234;14.320;2023-02-07T14:36:24;100579.00;;;10.20
11321;BMP180;5715;48.234;14.320;2023-02-07T14:42:17;100578.00;;;10.00
11321;BMP180;5715;48.234;14.320;2023-02-07T14:45:18;100581.00;;;10.10
11321;BMP180;5715;48.234;14.320;2023-02-07T14:49:01;100576.00;;;10.20
11321;BMP180;5715;48.234;14.320;2023-02-07T14:51:57;100573.00;;;10.20
11321;BMP180;5715;48.234;14.320;2023-02-07T14:55:04;100571.00;;;10.20
11321;BMP180;5715;48.234;14.320;2023-02-07T14:58:02;100573.00;;;9.90
11321;BMP180;5715;48.234;14.320;2023-02-07T15:00:56;100565.00;;;10.10
11321;BMP180;5715;48.234;14.320;2023-02-07T15:03:45;100560.00;;;9.80
11321;BMP180;5715;48.234;14.320;2023-02-07T15:06:42;100568.00;;;9.80
11321;BMP180;5715;48.234;14.320;2023-02-07T15:09:33;100569.00;;;9.20
11321;BMP180;5715;48.234;14.320;2023-02-07T15:12:25;100565.00;;;9.50
11321;BMP180;5715;48.234;14.320;2023-02-07T15:15:25;100562.00;;;9.60
11321;BMP180;5715;48.234;14.320;2023-02-07T15:18:16;100566.00;;;9.40
11321;BMP180;5715;48.234;14.320;2023-02-07T15:21:19;100571.00;;;9.60
11321;BMP180;5715;48.234;14.320;2023-02-07T15:24:24;100562.00;;;9.50
11321;BMP180;5715;48.234;14.320;2023-02-07T15:27:27;100577.00;;;9.50
11321;BMP180;5715;48.234;14.320;2023-02-07T15:30:18;100572.00;;;9.30
11321;BMP180;5715;48.234;14.320;2023-02-07T15:33:11;100568.00;;;9.10
11321;BMP180;5715;48.234;14.320;2023-02-07T15:36:34;100580.00;;;9.40
11321;BMP180;5715;48.234;14.320;2023-02-07T15:39:24;100589.00;;;9.40
11321;BMP180;5715;48.234;14.320;2023-02-07T15:42:19;100597.00;;;9.30
11321;BMP180;5715;48.234;14.320;2023-02-07T15:45:31;100605.00;;;9.10
11321;BMP180;5715;48.234;14.320;2023-02-07T15:48:19;100598.00;;;9.10
11321;BMP180;5715;48.234;14.320;2023-02-07T15:51:06;100600.00;;;9.30
11321;BMP180;5715;48.234;14.320;2023-02-07T15:53:59;100605.00;;;9.30
11321;BMP180;5715;48.234;14.320;2023-02-07T15:56:58;100608.00;;;9.10
11321;BMP180;5715;48.234;14.320;2023-02-07T15:59:49;100604.00;;;9.10
11321;BMP180;5715;48.234;14.320;2023-02-07T16:02:42;100607.00;;;9.20
11321;BMP180;5715;48.234;14.320;2023-02-07T16:05:38;100613.00;;;9.00
11321;BMP180;5715;48.234;14.320;2023-02-07T16:08:39;100606.00;;;8.90
11321;BMP180;5715;48.234;14.320;2023-02-07T16:14:22;100601.00;;;8.60
11321;BMP180;5715;48.234;14.320;2023-02-07T16:17:35;100601.00;;;8.60
11321;BMP180;5715;48.234;14.320;2023-02-07T16:20:24;100602.00;;;8.50
11321;BMP180;5715;48.234;14.320;2023-02-07T16:23:13;100610.00;;;8.30
11321;BMP180;5715;48.234;14.320;2023-02-07T16:26:01;100607.00;;;8.00
11321;BMP180;5715;48.234;14.320;2023-02-07T16:28:50;100600.00;;;7.50
11321;BMP180;5715;48.234;14.320;2023-02-07T16:31:38;100605.00;;;7.50
11321;BMP180;5715;48.234;14.320;2023-02-07T16:34:26;100615.00;;;7.30
11321;BMP180;5715;48.234;14.320;2023-02-07T16:37:13;100612.00;;;7.30
11321;BMP180;5715;48.234;14.320;2023-02-07T16:40:01;100627.00;;;7.50
11321;BMP180;5715;48.234;14.320;2023-02-07T16:42:54;100621.00;;;7.50
11321;BMP180;5715;48.234;14.320;2023-02-07T16:45:42;100627.00;;;7.60
11321;BMP180;5715;48.234;14.320;2023-02-07T16:48:30;100634.00;;;7.40
11321;BMP180;5715;48.234;14.320;2023-02-07T16:51:17;100629.00;;;7.30
11321;BMP180;5715;48.234;14.320;2023-02-07T16:54:05;100635.00;;;7.10
11321;BMP180;5715;48.234;14.320;2023-02-07T16:56:56;100635.00;;;7.00
11321;BMP180;5715;48.234;14.320;2023-02-07T16:59:44;100646.00;;;6.90
11321;BMP180;5715;48.234;14.320;2023-02-07T17:02:32;100654.00;;;7.00
11321;BMP180;5715;48.234;14.320;2023-02-07T17:05:21;100660.00;;;6.80
11321;BMP180;5715;48.234;14.320;2023-02-07T17:08:16;100659.00;;;6.80
11321;BMP180;5715;48.234;14.320;2023-02-07T17:11:05;100667.00;;;6.60
11321;BMP180;5715;48.234;14.320;2023-02-07T17:13:56;100662.00;;;6.50
11321;BMP180;5715;48.234;14.320;2023-02-07T17:16:44;100664.00;;;6.40
11321;BMP180;5715;48.234;14.320;2023-02-07T17:19:32;100679.00;;;6.30
11321;BMP180;5715;48.234;14.320;2023-02-07T17:22:19;100680.00;;;6.20
11321;BMP180;5715;48.234;14.320;2023-02-07T17:25:07;100672.00;;;6.20
11321;BMP180;5715;48.234;14.320;2023-02-07T17:27:55;100676.00;;;6.50
11321;BMP180;5715;48.234;14.320;2023-02-07T17:30:43;100677.00;;;6.70
11321;BMP180;5715;48.234;14.320;2023-02-07T17:33:31;100682.00;;;6.80
11321;BMP180;5715;48.234;14.320;2023-02-07T17:36:19;100680.00;;;6.80
11321;BMP180;5715;48.234;14.320;2023-02-07T17:39:11;100685.00;;;6.80
11321;BMP180;5715;48.234;14.320;2023-02-07T17:41:59;100683.00;;;6.90
11321;BMP180;5715;48.234;14.320;2023-02-07T17:44:47;100672.00;;;7.20
11321;BMP180;5715;48.234;14.320;2023-02-07T17:47:35;100674.00;;;7.10
11321;BMP180;5715;48.234;14.320;2023-02-07T17:50:31;100666.00;;;7.30
11321;BMP180;5715;48.234;14.320;2023-02-07T17:53:19;100675.00;;;7.20
11321;BMP180;5715;48.234;14.320;2023-02-07T17:56:22;100674.00;;;7.50
11321;BMP180;5715;48.234;14.320;2023-02-07T17:59:23;100661.00;;;6.90
11321;BMP180;5715;48.234;14.320;2023-02-07T18:02:10;100672.00;;;6.80
11321;BMP180;5715;48.234;14.320;2023-02-07T18:04:58;100671.00;;;7.00
11321;BMP180;5715;48.234;14.320;2023-02-07T18:07:47;100669.00;;;6.90
11321;BMP180;5715;48.234;14.320;2023-02-07T18:10:35;100673.00;;;6.60
11321;BMP180;5715;48.234;14.320;2023-02-07T18:13:24;100687.00;;;6.80
11321;BMP180;5715;48.234;14.320;2023-02-07T18:16:20;100684.00;;;6.70
11321;BMP180;5715;48.234;14.320;2023-02-07T18:19:15;100695.00;;;6.70
11321;BMP180;5715;48.234;14.320;2023-02-07T18:22:03;100699.00;;;6.10
11321;BMP180;5715;48.234;14.320;2023-02-07T18:24:50;100694.00;;;6.00
11321;BMP180;5715;48.234;14.320;2023-02-07T18:27:38;100692.00;;;5.90
11321;BMP180;5715;48.234;14.320;2023-02-07T18:30:27;100691.00;;;6.00
11321;BMP180;5715;48.234;14.320;2023-02-07T18:33:15;100698.00;;;5.80
11321;BMP180;5715;48.234;14.320;2023-02-07T18:36:06;100698.00;;;5.90
11321;BMP180;5715;48.234;14.320;2023-02-07T18:38:56;100705.00;;;6.10
11321;BMP180;5715;48.234;14.320;2023-02-07T18:41:44;100693.00;;;6.10
11321;BMP180;5715;48.234;14.320;2023-02-07T18:44:32;100706.00;;;6.30